Time;durP1;ratioP1;P1;durP2;ratioP2;P2;SDS_P1;SDS_P2;PMS_P1;PMS_P2;Temp;Humidity;BMP_temperature;BMP_pressure;BME280_temperature;BME280_humidity;BME280_pressure;Samples;Min_cycle;Max_cycle;Signal;HPM_P1;HPM_P2
2023/10/31 09:02:20;;;;;;;1.37;0.90;;;;;;;11.30;100.00;97563.78;5129997;27;21115;-88
2023/10/31 09:11:32;;;;;;;1.83;1.30;;;;;;;14.13;89.84;97626.31;5108409;27;42533;-87
2023/10/31 09:14:09;;;;;;;1.53;0.80;;;;;;;14.56;84.10;97625.69;5069091;28;44127;-88
2023/10/31 09:23:27;;;;;;;1.03;0.70;;;;;;;15.56;74.79;97635.22;5082033;28;44427;-87
2023/10/31 09:29:27;;;;;;;1.57;1.00;;;;;;;16.27;70.27;97683.84;5157639;27;41432;-89
2023/10/31 09:32:43;;;;;;;0.80;0.80;;;;;;;16.37;69.11;97697.09;5152116;27;43847;-89
2023/10/31 09:35:29;;;;;;;0.87;0.87;;;;;;;16.33;68.36;97693.03;5135489;27;41934;-83
2023/10/31 09:41:27;;;;;;;;;;;;;;;;;;;;;
2023/10/31 09:44:06;;;;;;;0.83;0.80;;;;;;;16.46;67.99;97698.78;5117841;27;43196;-87
2023/10/31 09:46:41;;;;;;;1.20;0.83;;;;;;;16.28;66.03;97684.69;5132386;27;42628;-85
2023/10/31 09:49:24;;;;;;;0.60;0.60;;;;;;;16.42;67.31;97687.59;5131067;27;41211;-86
2023/10/31 09:51:55;;;;;;;0.60;0.60;;;;;;;16.19;66.76;97653.59;5148021;27;39342;-84
2023/10/31 09:57:44;;;;;;;1.07;0.70;;;;;;;16.75;65.22;97688.56;5121590;27;43181;-84
2023/10/31 10:00:21;;;;;;;1.07;0.90;;;;;;;16.95;63.39;97704.31;5133760;27;42565;-84
2023/10/31 10:03:18;;;;;;;1.40;0.70;;;;;;;16.71;63.37;97668.50;5150783;27;39050;-89
2023/10/31 10:08:56;;;;;;;0.60;0.60;;;;;;;16.83;63.04;97696.59;5126456;27;42449;-82
2023/10/31 10:11:43;;;;;;;2.20;0.80;;;;;;;16.79;63.18;97714.00;5107996;27;41122;-84
2023/10/31 10:14:22;;;;;;;0.60;0.60;;;;;;;16.51;64.12;97685.78;5098834;27;40206;-83
2023/10/31 10:16:55;;;;;;;2.47;0.80;;;;;;;16.62;63.84;97720.28;5099373;27;41335;-82
2023/10/31 10:19:43;;;;;;;2.10;0.83;;;;;;;16.47;63.97;97711.16;5099464;27;42063;-90
2023/10/31 10:22:14;;;;;;;0.70;0.70;;;;;;;16.11;63.95;97679.25;5099210;27;41347;-87
2023/10/31 10:25:09;;;;;;;0.90;0.80;;;;;;;16.00;64.44;97676.03;5113627;27;41543;-87
2023/10/31 10:27:38;;;;;;;1.50;0.90;;;;;;;16.02;64.99;97696.25;5134407;27;41835;-84
2023/10/31 10:30:08;;;;;;;1.80;1.00;;;;;;;16.00;64.40;97716.09;5120196;27;42145;-83
2023/10/31 10:32:37;;;;;;;1.03;0.93;;;;;;;15.71;63.15;97701.19;5156498;27;42454;-81
2023/10/31 10:35:08;;;;;;;1.13;0.90;;;;;;;15.77;64.98;97715.78;5137482;27;41616;-83
2023/10/31 10:37:39;;;;;;;1.27;1.00;;;;;;;15.61;64.85;97702.31;5145853;27;43011;-85
2023/10/31 10:40:28;;;;;;;2.73;0.70;;;;;;;15.75;64.43;97715.09;5126216;27;43686;-85
2023/10/31 10:43:22;;;;;;;0.87;0.70;;;;;;;15.65;64.17;97719.69;5126684;27;41748;-86
2023/10/31 10:46:13;;;;;;;1.33;0.60;;;;;;;15.57;65.26;97719.63;5101630;27;39706;-85
2023/10/31 10:48:51;;;;;;;0.87;0.80;;;;;;;15.59;65.97;97709.63;5102862;27;42902;-84
2023/10/31 10:51:46;;;;;;;2.30;1.30;;;;;;;15.67;65.31;97691.00;5116956;27;43345;-84
2023/10/31 10:54:21;;;;;;;0.80;0.80;;;;;;;15.90;65.03;97699.34;5102091;27;42286;-83
2023/10/31 10:57:14;;;;;;;1.10;1.00;;;;;;;15.78;63.90;97691.59;5135935;27;39376;-91
2023/10/31 10:59:56;;;;;;;1.17;0.90;;;;;;;15.76;63.16;97709.59;5118807;27;43412;-87
2023/10/31 11:02:24;;;;;;;0.90;0.90;;;;;;;15.92;63.10;97727.56;5119759;27;41570;-88
2023/10/31 11:05:14;;;;;;;3.10;1.00;;;;;;;15.82;63.69;97736.66;5135835;27;42394;-83
2023/10/31 11:08:10;;;;;;;2.60;1.00;;;;;;;15.75;65.18;97721.25;5119087;27;40484;-89
2023/10/31 11:10:40;;;;;;;1.00;0.90;;;;;;;15.59;65.37;97698.94;5118137;27;40809;-85
2023/10/31 11:13:12;;;;;;;0.70;0.70;;;;;;;15.82;65.61;97720.66;5120354;27;43701;-87
2023/10/31 11:15:41;;;;;;;1.57;0.80;;;;;;;15.90;64.86;97729.53;5126034;27;43970;-87
2023/10/31 11:18:12;;;;;;;1.43;1.00;;;;;;;15.85;63.61;97710.47;5134560;27;40439;-83
2023/10/31 11:20:43;;;;;;;0.77;0.60;;;;;;;16.08;63.59;97746.34;5119549;27;40557;-85
2023/10/31 11:23:11;;;;;;;0.70;0.70;;;;;;;16.07;62.50;97751.88;5118933;27;42274;-86
2023/10/31 11:29:22;;;;;;;1.10;0.80;;;;;;;15.82;63.00;97722.31;5116978;27;38876;-86
2023/10/31 11:32:23;;;;;;;1.23;0.90;;;;;;;16.10;63.10;97762.22;5117957;27;40911;-86
2023/10/31 11:38:51;;;;;;;1.30;0.90;;;;;;;16.43;61.40;97763.25;5098531;27;42213;-89
2023/10/31 11:44:04;;;;;;;2.07;0.77;;;;;;;16.31;61.29;97768.03;5117687;27;42854;-86
2023/10/31 11:46:32;;;;;;;1.30;0.70;;;;;;;16.41;60.71;97762.56;5117935;27;42374;-88
2023/10/31 11:49:02;;;;;;;0.63;0.63;;;;;;;16.41;61.36;97746.53;5118385;27;41476;-88
2023/10/31 11:51:35;;;;;;;1.33;0.90;;;;;;;16.70;60.15;97786.28;5136077;27;40252;-88
2023/10/31 11:54:02;;;;;;;1.50;0.80;;;;;;;16.71;59.91;97772.75;5135702;27;41173;-87
2023/10/31 11:56:30;;;;;;;0.87;0.87;;;;;;;16.68;59.65;97767.75;5118708;27;42956;-89
2023/10/31 11:59:02;;;;;;;1.80;0.83;;;;;;;16.89;59.93;97794.06;5134791;27;42032;-88
2023/10/31 12:01:30;;;;;;;2.13;0.70;;;;;;;16.87;60.93;97788.03;5132487;27;39818;-88
2023/10/31 12:03:58;;;;;;;0.63;0.63;;;;;;;16.82;59.64;97796.53;5135673;27;42001;-90
2023/10/31 12:06:25;;;;;;;0.93;0.80;;;;;;;16.80;59.38;97793.22;5118120;27;43477;-88
2023/10/31 12:09:01;;;;;;;1.40;0.70;;;;;;;16.95;59.07;97805.94;5117807;27;41398;-88
2023/10/31 12:11:30;;;;;;;1.27;1.03;;;;;;;16.84;58.67;97777.66;5118419;27;39891;-88
2023/10/31 12:14:03;;;;;;;0.93;0.80;;;;;;;17.05;59.59;97801.31;5136349;27;41597;-87
2023/10/31 12:16:34;;;;;;;0.90;0.77;;;;;;;17.03;59.74;97792.63;5119249;27;42031;-89
2023/10/31 12:19:03;;;;;;;4.90;0.77;;;;;;;17.05;59.84;97806.66;5136168;27;42073;-89
2023/10/31 12:21:39;;;;;;;1.07;0.97;;;;;;;16.84;59.15;97793.69;5119327;27;38875;-87
2023/10/31 12:24:10;;;;;;;2.43;1.00;;;;;;;16.84;59.40;97810.59;5119332;27;40908;-88
2023/10/31 12:26:38;;;;;;;1.33;1.03;;;;;;;16.75;58.86;97806.22;5118873;27;41564;-89
2023/10/31 12:29:13;;;;;;;1.93;1.07;;;;;;;16.86;59.17;97827.31;5135656;27;41876;-89
2023/10/31 12:31:45;;;;;;;0.90;0.60;;;;;;;16.87;59.91;97815.63;5119383;27;38702;-88
2023/10/31 12:34:13;;;;;;;1.80;0.80;;;;;;;16.98;59.22;97833.22;5118928;27;40876;-87
2023/10/31 12:36:42;;;;;;;1.00;0.80;;;;;;;16.84;58.58;97826.63;5102233;27;43163;-87
2023/10/31 12:39:12;;;;;;;1.80;0.83;;;;;;;16.85;58.03;97841.69;5118444;27;41237;-88
2023/10/31 12:41:42;;;;;;;0.60;0.60;;;;;;;16.68;58.52;97825.72;5117471;27;38961;-87
2023/10/31 12:44:10;;;;;;;0.70;0.70;;;;;;;16.76;59.77;97834.63;5117505;27;40860;-88
2023/10/31 12:46:41;;;;;;;1.87;1.10;;;;;;;16.74;58.98;97836.59;5117781;27;41479;-87
2023/10/31 12:49:12;;;;;;;1.20;0.73;;;;;;;16.59;59.05;97822.13;5134710;27;42271;-88
2023/10/31 12:51:57;;;;;;;0.90;0.70;;;;;;;16.66;58.95;97827.72;5134953;27;40118;-85
2023/10/31 12:54:32;;;;;;;1.07;0.63;;;;;;;16.85;58.58;97839.00;5134819;27;40709;-87
2023/10/31 12:57:01;;;;;;;1.83;0.80;;;;;;;16.92;59.35;97822.34;5134623;27;43441;-88
2023/10/31 12:59:29;;;;;;;0.70;0.70;;;;;;;16.88;59.10;97811.09;5117615;27;42680;-88
2023/10/31 13:01:57;;;;;;;1.93;0.70;;;;;;;17.18;59.44;97829.25;5117813;27;39164;-87
2023/10/31 13:04:26;;;;;;;0.70;0.70;;;;;;;17.23;59.15;97818.09;5134347;27;41741;-89
2023/10/31 13:07:01;;;;;;;1.90;0.70;;;;;;;17.43;58.05;97848.09;5134606;27;42786;-86
2023/10/31 13:09:35;;;;;;;1.07;0.70;;;;;;;17.38;57.72;97829.84;5116900;27;42332;-86
2023/10/31 13:12:05;;;;;;;0.80;0.80;;;;;;;17.40;58.21;97838.53;5135403;27;38807;-88
2023/10/31 13:14:33;;;;;;;1.03;0.67;;;;;;;17.37;57.00;97843.38;5117744;27;40921;-87
2023/10/31 13:17:02;;;;;;;4.20;0.90;;;;;;;17.41;57.37;97853.59;5100929;27;41782;-86
2023/10/31 13:19:30;;;;;;;0.60;0.60;;;;;;;17.27;57.68;97837.34;5117782;27;43509;-86
2023/10/31 13:21:57;;;;;;;1.43;0.70;;;;;;;17.20;56.91;97859.38;5118254;27;39145;-86
2023/10/31 13:24:25;;;;;;;1.80;1.00;;;;;;;17.02;56.62;97855.13;5134973;27;41644;-87
2023/10/31 13:26:54;;;;;;;3.80;1.00;;;;;;;16.93;56.44;97846.25;5118303;27;45711;-88
2023/10/31 13:29:25;;;;;;;1.23;0.70;;;;;;;16.92;57.47;97847.25;5117482;27;41229;-86
2023/10/31 13:31:54;;;;;;;1.07;0.70;;;;;;;16.72;56.49;97835.94;5117728;27;40858;-87
2023/10/31 13:34:21;;;;;;;1.90;0.90;;;;;;;16.74;56.12;97851.81;5115325;27;40996;-88
2023/10/31 13:36:51;;;;;;;1.47;1.00;;;;;;;16.53;56.06;97847.66;5133912;27;43354;-87
2023/10/31 13:39:21;;;;;;;2.20;0.70;;;;;;;16.60;56.20;97855.88;5116785;27;42888;-87
2023/10/31 13:41:48;;;;;;;1.77;0.73;;;;;;;16.78;56.36;97875.41;5133918;27;40261;-86
2023/10/31 13:44:18;;;;;;;1.53;1.03;;;;;;;16.78;56.99;97851.34;5116669;27;42232;-88
2023/10/31 13:46:46;;;;;;;2.13;0.80;;;;;;;16.87;56.83;97847.72;5117364;27;44135;-87
2023/10/31 13:49:14;;;;;;;2.30;0.73;;;;;;;17.01;57.24;97864.16;5120184;27;42714;-88
2023/10/31 13:51:42;;;;;;;1.17;0.80;;;;;;;16.99;57.01;97860.78;5120440;27;39325;-87
2023/10/31 13:54:10;;;;;;;1.80;1.17;;;;;;;16.94;56.78;97868.47;5120203;27;43295;-87
2023/10/31 13:56:38;;;;;;;3.13;1.10;;;;;;;16.84;56.94;97856.03;5119943;27;42220;-89
2023/10/31 13:59:05;;;;;;;1.83;1.20;;;;;;;16.79;56.93;97847.69;5119732;27;40935;-87
2023/10/31 14:01:35;;;;;;;0.90;0.90;;;;;;;16.77;56.20;97852.34;5102781;27;39053;-86
2023/10/31 14:04:03;;;;;;;1.13;0.90;;;;;;;16.60;55.85;97834.50;5135735;27;44177;-86
2023/10/31 14:06:32;;;;;;;2.83;1.00;;;;;;;16.66;56.15;97860.63;5121910;27;43355;-86
2023/10/31 14:09:00;;;;;;;2.13;1.00;;;;;;;16.55;56.24;97858.19;5129999;27;42953;-86
2023/10/31 14:11:28;;;;;;;1.10;0.87;;;;;;;16.37;55.98;97849.38;5124129;27;40661;-87
2023/10/31 14:13:56;;;;;;;1.97;1.17;;;;;;;16.40;56.79;97865.09;5138119;27;42535;-86
2023/10/31 14:16:25;;;;;;;1.97;1.30;;;;;;;16.44;56.98;97887.88;5120567;27;41808;-86
2023/10/31 14:18:54;;;;;;;2.63;1.30;;;;;;;16.29;57.49;97871.56;5137578;27;42876;-82
2023/10/31 14:21:22;;;;;;;1.93;1.20;;;;;;;16.06;57.13;97857.00;5134999;27;39075;-87
2023/10/31 14:23:53;;;;;;;1.80;1.10;;;;;;;16.16;56.67;97874.63;5118628;27;40938;-87
2023/10/31 14:26:22;;;;;;;2.00;1.00;;;;;;;16.29;56.61;97890.25;5121588;27;43407;-85
2023/10/31 14:28:51;;;;;;;2.10;1.20;;;;;;;16.35;56.84;97899.47;5135643;27;43696;-87
2023/10/31 14:31:20;;;;;;;4.77;0.83;;;;;;;16.42;56.93;97889.84;5121330;27;41109;-86
2023/10/31 14:33:48;;;;;;;2.53;1.00;;;;;;;16.42;56.75;97882.66;5103499;27;41857;-87
2023/10/31 14:36:18;;;;;;;1.53;0.80;;;;;;;16.52;56.63;97885.25;5120829;27;42001;-86
2023/10/31 14:38:46;;;;;;;5.63;1.40;;;;;;;16.47;56.73;97871.50;5117662;27;41850;-87
2023/10/31 14:41:15;;;;;;;2.70;1.13;;;;;;;16.45;57.56;97863.63;5100714;27;40958;-86
2023/10/31 14:43:44;;;;;;;3.10;1.10;;;;;;;16.59;56.33;97896.13;5135942;27;40904;-84
2023/10/31 14:46:12;;;;;;;4.53;1.33;;;;;;;16.43;56.81;97887.03;5154169;27;42767;-90
2023/10/31 14:48:39;;;;;;;3.50;1.27;;;;;;;16.44;56.38;97909.25;5119298;27;42431;-91
2023/10/31 14:51:12;;;;;;;3.93;0.90;;;;;;;16.40;56.65;97913.22;5119640;27;38695;-91
2023/10/31 14:53:41;;;;;;;2.43;1.03;;;;;;;16.29;57.15;97900.09;5102517;27;40555;-92
2023/10/31 14:56:10;;;;;;;1.73;1.00;;;;;;;16.17;57.20;97891.50;5119242;27;42818;-91
2023/10/31 14:58:38;;;;;;;1.80;0.87;;;;;;;16.14;57.32;97906.00;5118243;27;41314;-90
2023/10/31 15:01:10;;;;;;;1.50;0.80;;;;;;;15.87;57.52;97868.69;5119187;27;40606;-92
2023/10/31 15:03:38;;;;;;;3.20;0.90;;;;;;;16.08;57.97;97914.59;5119727;27;40964;-93
2023/10/31 15:06:08;;;;;;;1.67;1.00;;;;;;;16.06;58.41;97915.78;5119622;27;42220;-91
2023/10/31 15:08:37;;;;;;;1.83;0.90;;;;;;;16.04;58.65;97909.75;5119420;27;43841;-90
2023/10/31 15:11:06;;;;;;;1.67;1.30;;;;;;;16.05;58.87;97914.09;5102296;27;39501;-91
2023/10/31 15:13:37;;;;;;;3.43;1.40;;;;;;;16.02;59.19;97901.03;5137771;27;40794;-90
2023/10/31 15:16:08;;;;;;;3.03;1.23;;;;;;;15.90;59.45;97873.72;5138193;27;42082;-91
2023/10/31 15:18:37;;;;;;;1.27;0.73;;;;;;;15.85;59.45;97876.00;5120625;27;42543;-91
2023/10/31 15:21:05;;;;;;;7.27;2.37;;;;;;;15.72;59.40;97886.22;5120530;27;39019;-89
2023/10/31 15:23:35;;;;;;;4.00;2.07;;;;;;;15.53;59.50;97881.00;5103552;27;41552;-90
2023/10/31 15:26:03;;;;;;;3.23;1.70;;;;;;;15.17;60.02;97859.59;5119980;27;42433;-89
2023/10/31 15:28:32;;;;;;;2.50;1.40;;;;;;;15.28;61.35;97898.56;5136582;27;41206;-90
2023/10/31 15:31:00;;;;;;;3.40;1.10;;;;;;;14.97;61.59;97890.00;5120153;27;39356;-90
2023/10/31 15:33:28;;;;;;;1.67;1.17;;;;;;;14.74;62.44;97879.69;5120237;27;40724;-93
2023/10/31 15:35:58;;;;;;;2.37;1.60;;;;;;;14.62;62.46;97893.34;5119970;27;41957;-92
2023/10/31 15:38:27;;;;;;;5.47;2.27;;;;;;;14.68;62.77;97922.94;5119927;27;41377;-91
2023/10/31 15:40:55;;;;;;;1.57;1.27;;;;;;;14.48;63.94;97915.94;5119893;27;41291;-90
2023/10/31 15:43:22;;;;;;;3.20;1.40;;;;;;;14.29;63.96;97910.63;5101610;27;42419;-90
2023/10/31 15:45:52;;;;;;;1.57;1.20;;;;;;;14.02;64.57;97892.72;5118105;27;43391;-90
2023/10/31 15:48:20;;;;;;;3.93;1.50;;;;;;;14.08;64.88;97921.44;5136164;27;42623;-92
2023/10/31 15:50:48;;;;;;;3.60;1.33;;;;;;;13.96;65.39;97925.22;5118566;27;40608;-90
2023/10/31 15:53:18;;;;;;;2.80;1.10;;;;;;;13.85;66.10;97912.88;5118351;27;40677;-94
2023/10/31 15:55:47;;;;;;;3.17;1.57;;;;;;;13.85;66.41;97939.50;5118024;27;43627;-91
2023/10/31 15:58:15;;;;;;;2.83;1.63;;;;;;;13.66;66.77;97923.50;5101811;27;41450;-90
2023/10/31 16:00:43;;;;;;;2.17;1.50;;;;;;;13.57;66.87;97914.53;5136271;27;40965;-89
2023/10/31 16:03:12;;;;;;;2.80;1.30;;;;;;;13.46;67.33;97919.16;5118480;27;42202;-89
2023/10/31 16:05:40;;;;;;;3.10;1.30;;;;;;;13.37;67.96;97917.28;5135879;27;43892;-89
2023/10/31 16:08:09;;;;;;;1.33;1.10;;;;;;;13.40;68.35;97933.81;5119800;27;40844;-89
2023/10/31 16:10:38;;;;;;;3.50;1.30;;;;;;;13.33;68.64;97937.16;5119100;27;40073;-90
2023/10/31 16:13:05;;;;;;;1.53;1.20;;;;;;;13.25;69.03;97949.28;5120517;27;40749;-88
2023/10/31 16:15:33;;;;;;;4.57;1.23;;;;;;;13.08;69.02;97928.66;5119399;27;43434;-89
2023/10/31 16:18:00;;;;;;;2.40;1.20;;;;;;;12.98;69.93;97922.47;5120822;27;40937;-88
2023/10/31 16:20:32;;;;;;;2.73;1.23;;;;;;;13.03;69.67;97941.50;5119979;27;40310;-88
2023/10/31 16:22:59;;;;;;;2.20;1.10;;;;;;;12.88;69.79;97929.53;5102944;27;40722;-88
2023/10/31 16:25:27;;;;;;;4.00;1.17;;;;;;;12.85;69.96;97943.09;5136659;27;41794;-88
2023/10/31 16:27:54;;;;;;;3.00;1.30;;;;;;;12.78;70.00;97947.25;5102662;27;41462;-88
2023/10/31 16:30:23;;;;;;;1.57;1.43;;;;;;;12.82;71.09;97969.94;5119300;27;39898;-89
2023/10/31 16:32:50;;;;;;;2.00;1.10;;;;;;;12.75;71.70;97976.72;5119364;27;40627;-89
2023/10/31 16:35:18;;;;;;;2.90;1.30;;;;;;;12.53;71.76;97954.66;5118742;27;43486;-89
2023/10/31 16:37:47;;;;;;;3.13;1.30;;;;;;;12.51;72.00;97961.91;5117181;27;44454;-90
2023/10/31 16:40:16;;;;;;;2.60;1.50;;;;;;;12.43;72.91;97964.38;5117930;27;40258;-89
2023/10/31 16:42:45;;;;;;;2.03;1.30;;;;;;;12.49;73.57;97974.47;5118149;27;40840;-89
2023/10/31 16:45:13;;;;;;;1.73;1.23;;;;;;;12.38;74.23;97966.56;5151884;27;42863;-88
2023/10/31 16:47:40;;;;;;;1.93;1.30;;;;;;;12.45;73.63;97988.13;5101282;27;41016;-89
2023/10/31 16:50:08;;;;;;;1.93;1.50;;;;;;;12.41;74.36;97976.91;5118586;27;38812;-89
2023/10/31 16:52:37;;;;;;;1.67;1.20;;;;;;;12.55;74.14;97994.34;5134600;27;42024;-89
2023/10/31 16:55:07;;;;;;;3.27;1.57;;;;;;;12.59;74.22;97996.63;5117919;27;41790;-89
2023/10/31 16:57:35;;;;;;;1.50;1.30;;;;;;;12.60;74.76;97994.81;5117721;27;43263;-89
2023/10/31 17:00:03;;;;;;;1.63;1.50;;;;;;;12.57;74.79;97993.25;5118423;27;40418;-89
2023/10/31 17:02:31;;;;;;;3.60;1.70;;;;;;;12.47;74.62;97976.41;5125747;27;42190;-89
2023/10/31 17:04:58;;;;;;;2.07;1.50;;;;;;;12.45;74.93;97991.63;5129210;27;43467;-90
2023/10/31 17:07:27;;;;;;;3.10;1.37;;;;;;;12.45;74.99;97991.63;5118118;27;42944;-89
2023/10/31 17:10:01;;;;;;;2.83;1.33;;;;;;;12.51;74.54;98012.34;5117852;27;40379;-89
2023/10/31 17:12:30;;;;;;;1.77;1.30;;;;;;;12.29;74.82;97988.56;5119584;27;43170;-89
2023/10/31 17:14:58;;;;;;;1.87;1.30;;;;;;;12.31;75.30;97996.41;5119045;27;42817;-89
2023/10/31 17:17:25;;;;;;;5.63;2.07;;;;;;;12.14;76.75;97987.19;5119159;27;42086;-89
2023/10/31 17:19:55;;;;;;;2.93;1.30;;;;;;;12.31;76.42;98023.81;5136437;27;38843;-89
2023/10/31 17:22:23;;;;;;;1.90;1.40;;;;;;;12.19;77.77;98008.88;5120285;27;43369;-89
2023/10/31 17:24:50;;;;;;;2.33;1.83;;;;;;;12.21;78.17;98012.25;5122210;27;41776;-88
2023/10/31 17:27:19;;;;;;;2.70;1.67;;;;;;;12.11;77.76;98006.88;5139452;27;43147;-88
2023/10/31 17:29:48;;;;;;;2.03;1.23;;;;;;;12.19;78.91;98019.50;5122190;27;38826;-90
2023/10/31 17:32:15;;;;;;;1.93;1.23;;;;;;;12.19;78.79;98024.81;5122290;27;40845;-89
2023/10/31 17:34:43;;;;;;;3.20;1.27;;;;;;;12.12;79.04;98024.47;5105124;27;41688;-89
2023/10/31 17:37:11;;;;;;;1.80;1.17;;;;;;;12.20;80.70;98031.81;5122188;27;42685;-89
2023/10/31 17:39:39;;;;;;;2.77;1.37;;;;;;;12.34;80.53;98063.38;5120347;27;38631;-89
2023/10/31 17:42:07;;;;;;;2.80;1.60;;;;;;;12.37;81.62;98057.78;5156563;27;41844;-90
2023/10/31 17:44:36;;;;;;;3.73;1.83;;;;;;;12.41;82.97;98066.34;5121164;27;41878;-91
2023/10/31 17:47:07;;;;;;;5.93;2.70;;;;;;;12.40;82.88;98073.47;5104530;27;42977;-90
2023/10/31 17:49:35;;;;;;;3.27;2.17;;;;;;;12.26;84.26;98036.59;5121568;27;43395;-89
2023/10/31 17:52:04;;;;;;;1.33;1.23;;;;;;;12.48;84.83;98072.88;5120655;27;41852;-89
2023/10/31 17:54:32;;;;;;;1.30;1.17;;;;;;;12.53;84.19;98082.13;5121417;27;43146;-90
2023/10/31 17:57:01;;;;;;;1.80;1.30;;;;;;;12.43;84.85;98059.97;5138098;27;42997;-90
2023/10/31 17:59:29;;;;;;;3.00;1.27;;;;;;;12.45;84.29;98068.66;5156727;27;39369;-91
2023/10/31 18:01:57;;;;;;;3.37;1.40;;;;;;;12.51;84.77;98070.78;5137993;27;42279;-90
2023/10/31 18:04:31;;;;;;;1.03;0.90;;;;;;;12.61;85.29;98088.63;5121128;27;43417;-89
2023/10/31 18:06:58;;;;;;;3.53;1.33;;;;;;;12.53;86.30;98074.16;5103403;27;42339;-90
2023/10/31 18:09:26;;;;;;;1.30;1.20;;;;;;;12.64;85.57;98096.31;5120672;27;39386;-89
2023/10/31 18:11:53;;;;;;;1.93;1.30;;;;;;;12.61;85.67;98091.28;5120791;27;42145;-90
2023/10/31 18:14:22;;;;;;;2.03;1.10;;;;;;;12.61;86.28;98088.63;5138797;27;43987;-90
2023/10/31 18:16:50;;;;;;;3.80;1.30;;;;;;;12.63;86.69;98084.00;5121719;27;41224;-90
2023/10/31 18:19:18;;;;;;;1.90;1.10;;;;;;;12.65;86.16;98090.03;5121801;27;39492;-90
2023/10/31 18:21:47;;;;;;;1.70;1.27;;;;;;;12.67;86.93;98082.78;5121390;27;40530;-90
2023/10/31 18:24:14;;;;;;;1.30;1.20;;;;;;;12.74;86.66;98089.25;5121824;27;43437;-90
2023/10/31 18:26:42;;;;;;;1.43;0.93;;;;;;;12.76;86.65;98092.66;5138144;27;42068;-92
2023/10/31 18:29:11;;;;;;;1.30;1.20;;;;;;;12.81;86.40;98098.44;5138377;27;39099;-90
2023/10/31 18:31:39;;;;;;;1.57;1.33;;;;;;;12.95;86.10;98111.41;5104513;27;40764;-89
2023/10/31 18:34:08;;;;;;;1.20;1.10;;;;;;;12.89;86.17;98098.63;5121025;27;43307;-91
2023/10/31 18:36:36;;;;;;;3.33;1.10;;;;;;;12.85;85.72;98091.91;5138192;27;41782;-91
2023/10/31 18:39:05;;;;;;;2.37;1.20;;;;;;;12.93;86.24;98103.56;5121155;27;39738;-91
2023/10/31 18:41:33;;;;;;;1.23;1.13;;;;;;;12.93;86.45;98102.72;5119399;27;42058;-90
2023/10/31 18:44:02;;;;;;;2.23;1.40;;;;;;;12.91;86.31;98104.66;5120592;27;42113;-89
2023/10/31 18:46:29;;;;;;;1.97;1.30;;;;;;;12.99;86.62;98120.78;5137555;27;42208;-90
2023/10/31 18:48:57;;;;;;;1.53;1.23;;;;;;;12.64;87.02;98067.94;5137384;27;42158;-90
2023/10/31 18:51:25;;;;;;;2.30;1.20;;;;;;;12.87;86.80;98114.69;5120259;27;41623;-91
2023/10/31 18:53:54;;;;;;;1.37;1.10;;;;;;;12.95;87.38;98128.19;5119908;27;43325;-89
2023/10/31 18:56:23;;;;;;;1.17;1.00;;;;;;;12.78;87.29;98106.66;5119967;27;40731;-91
2023/10/31 18:58:50;;;;;;;4.37;2.00;;;;;;;12.78;87.66;98082.72;5119943;27;40920;-91
2023/10/31 19:01:18;;;;;;;5.87;3.23;;;;;;;13.06;87.47;98129.94;5102936;27;42344;-90
2023/10/31 19:03:46;;;;;;;4.83;2.77;;;;;;;13.00;87.58;98122.47;5119929;27;42799;-92
2023/10/31 19:06:14;;;;;;;3.07;1.50;;;;;;;13.01;87.38;98121.50;5102884;27;42219;-88
2023/10/31 19:08:42;;;;;;;1.43;1.10;;;;;;;13.04;87.35;98121.25;5120579;27;39859;-89
2023/10/31 19:11:09;;;;;;;2.27;1.20;;;;;;;13.07;87.09;98128.13;5119896;27;42779;-90
2023/10/31 19:13:38;;;;;;;1.40;1.30;;;;;;;13.12;86.96;98137.41;5121537;27;42760;-91
2023/10/31 19:16:07;;;;;;;1.47;1.13;;;;;;;13.12;87.22;98132.06;5120909;27;43381;-90
2023/10/31 19:18:34;;;;;;;1.30;1.20;;;;;;;13.23;86.73;98149.81;5121355;27;40116;-90
2023/10/31 19:21:04;;;;;;;1.83;1.10;;;;;;;13.14;87.12;98134.59;5120650;27;43627;-90
2023/10/31 19:23:33;;;;;;;1.63;1.10;;;;;;;13.16;86.77;98138.03;5120678;27;41518;-91
2023/10/31 19:26:01;;;;;;;2.87;1.17;;;;;;;13.10;86.91;98127.88;5120239;27;42111;-89
2023/10/31 19:28:29;;;;;;;1.10;1.00;;;;;;;13.18;86.87;98131.59;5120319;27;40947;-88
2023/10/31 19:31:01;;;;;;;1.33;0.80;;;;;;;13.25;86.58;98146.06;5103464;27;41680;-87
2023/10/31 19:33:29;;;;;;;1.97;0.87;;;;;;;13.27;86.38;98149.44;5120596;27;46089;-91
2023/10/31 19:35:57;;;;;;;0.80;0.77;;;;;;;13.18;86.46;98142.25;5128666;27;42235;-85
2023/10/31 19:38:25;;;;;;;1.47;1.00;;;;;;;13.18;86.39;98146.72;5132624;27;38428;-85
2023/10/31 19:40:52;;;;;;;1.63;0.90;;;;;;;13.27;86.54;98161.88;5132134;27;41986;-87
2023/10/31 19:43:21;;;;;;;1.27;0.90;;;;;;;13.16;86.39;98148.66;5130725;27;44031;-86
2023/10/31 19:45:49;;;;;;;1.17;1.07;;;;;;;13.13;86.92;98144.41;5132420;27;41509;-87
2023/10/31 19:48:19;;;;;;;1.03;0.93;;;;;;;13.10;86.94;98154.47;5132286;27;38915;-87
2023/10/31 19:50:46;;;;;;;1.03;0.90;;;;;;;13.03;87.19;98159.44;5139474;27;40984;-93
2023/10/31 19:53:15;;;;;;;1.23;1.13;;;;;;;12.78;87.34;98117.28;5127031;27;43232;-87
2023/10/31 19:55:43;;;;;;;0.80;0.80;;;;;;;13.05;87.70;98159.31;5131379;27;41088;-89
2023/10/31 19:58:10;;;;;;;1.20;1.10;;;;;;;13.07;87.41;98160.03;5137992;27;39820;-86
2023/10/31 20:00:39;;;;;;;0.80;0.80;;;;;;;13.07;87.55;98160.03;5141244;27;41007;-89
2023/10/31 20:03:07;;;;;;;1.30;1.00;;;;;;;12.98;87.43;98137.75;5119279;27;43820;-92
2023/10/31 20:05:36;;;;;;;1.10;1.00;;;;;;;13.13;87.52;98165.66;5118872;27;41555;-91
2023/10/31 20:08:03;;;;;;;1.70;1.00;;;;;;;13.13;87.59;98160.34;5118808;27;39992;-94
2023/10/31 20:10:31;;;;;;;2.27;1.07;;;;;;;13.27;87.76;98184.00;5119025;27;41187;-91
2023/10/31 20:12:59;;;;;;;1.83;0.93;;;;;;;13.29;87.72;98191.84;5136719;27;41948;-90
2023/10/31 20:15:27;;;;;;;0.97;0.87;;;;;;;13.28;87.97;98185.69;5120101;27;41089;-88
2023/10/31 20:17:54;;;;;;;1.23;0.90;;;;;;;13.17;88.06;98168.94;5137159;27;41310;-91
2023/10/31 20:20:22;;;;;;;1.10;1.00;;;;;;;13.24;88.29;98194.88;5119823;27;40436;-88
2023/10/31 20:22:51;;;;;;;2.17;1.20;;;;;;;12.92;89.30;98140.88;5119647;27;41661;-89
2023/10/31 20:25:19;;;;;;;1.30;1.20;;;;;;;13.05;89.97;98178.75;5119637;27;42517;-89
2023/10/31 20:27:48;;;;;;;1.20;1.10;;;;;;;12.94;91.32;98177.00;5103033;27;38882;-91
2023/10/31 20:30:17;;;;;;;1.20;1.10;;;;;;;12.87;91.27;98178.47;5119218;27;42477;-91
2023/10/31 20:32:45;;;;;;;1.20;1.10;;;;;;;12.77;92.27;98163.41;5119698;27;43133;-89
2023/10/31 20:35:13;;;;;;;1.70;0.87;;;;;;;12.86;91.60;98183.91;5119531;27;42740;-91
2023/10/31 20:37:40;;;;;;;1.30;0.90;;;;;;;12.80;92.54;98184.41;5119611;27;41388;-90
2023/10/31 20:40:12;;;;;;;1.43;1.03;;;;;;;12.79;92.36;98180.06;5102491;27;40549;-91
2023/10/31 20:42:42;;;;;;;1.73;1.10;;;;;;;12.81;92.52;98186.09;5117562;27;43430;-92
2023/10/31 20:45:11;;;;;;;1.30;1.20;;;;;;;12.77;92.66;98182.84;5118026;27;41927;-91
2023/10/31 20:47:39;;;;;;;1.13;1.03;;;;;;;12.84;93.36;98207.13;5117949;27;40152;-91
2023/10/31 20:50:07;;;;;;;1.30;1.20;;;;;;;12.75;93.30;98183.94;5118485;27;40782;-90
2023/10/31 20:52:38;;;;;;;1.03;0.90;;;;;;;12.72;94.01;98186.88;5118155;27;43625;-89
2023/10/31 20:55:07;;;;;;;4.17;1.10;;;;;;;12.80;93.61;98201.22;5118047;27;42855;-91
2023/10/31 20:57:37;;;;;;;1.00;0.90;;;;;;;12.76;94.26;98204.22;5117889;27;41291;-91
2023/10/31 21:00:09;;;;;;;1.00;0.93;;;;;;;12.58;94.29;98186.19;5117955;27;41074;-91
2023/10/31 21:02:41;;;;;;;1.17;1.07;;;;;;;12.56;94.86;98187.28;5135691;27;44484;-90
2023/10/31 21:05:09;;;;;;;1.30;1.20;;;;;;;12.58;95.11;98190.66;5135662;27;43799;-92
2023/10/31 21:07:37;;;;;;;0.80;0.80;;;;;;;12.69;95.88;98192.44;5119656;27;38813;-87
2023/10/31 21:10:06;;;;;;;1.10;1.00;;;;;;;12.69;95.73;98203.91;5119394;27;41267;-90
2023/10/31 21:12:34;;;;;;;1.00;0.90;;;;;;;12.63;96.34;98192.91;5100254;27;42027;-85
2023/10/31 21:15:05;;;;;;;2.90;0.90;;;;;;;12.68;96.76;98204.88;5118883;27;41266;-89
2023/10/31 21:17:33;;;;;;;1.57;1.27;;;;;;;12.71;96.02;98201.13;5154057;27;39931;-88
2023/10/31 21:20:01;;;;;;;1.30;1.20;;;;;;;12.66;96.69;98193.50;5118871;27;40705;-84
2023/10/31 21:22:29;;;;;;;1.80;1.20;;;;;;;12.75;96.46;98202.53;5135303;27;43381;-89
2023/10/31 21:24:58;;;;;;;1.20;1.10;;;;;;;12.65;96.90;98185.66;5135778;27;42536;-89
2023/10/31 21:27:26;;;;;;;1.20;0.90;;;;;;;12.75;96.59;98197.22;5118654;27;38673;-87